Safari — WDI3744 — position and weather

sailwx.info

Track history (hours):
 
Tides and Currents Weather Stations Pressure Air Temp Water Temp Dewpoint Dewpoint Depression Visibility Wind Speed Wind Dir Waves Ship Positions

Safari

Owner: Kauai Safari, LLC, Encinitas, CA. More information available from US FCC via Universal Licensing System and Coast Guard Vessel Documentation Center.

Last reported at 2018-Jun-20 12:11 UTC. Time now 2018-Jun-20 15:18 UTC.
Position N 46°48' W 124°52'.

Length 25 m.

Type: Pleasure craft. MMSI: 367691450.

Date/timePositionNaut miles runAvg speedWind from/ knotsBaromVisibWave heightAir tempDewpointWater temp
2018-Jun-20 12:11N 46°48' W 124°52'2 8.9
2018-Jun-20 11:59N 46°47' W 124°52'12 8.6
2018-Jun-20 10:33N 46°34' W 124°52'1 8.2
2018-Jun-20 10:28N 46°34' W 124°52'4 9.2
2018-Jun-20 10:00N 46°29' W 124°52'4 8.9
2018-Jun-20 09:31N 46°25' W 124°52'4 8.8
2018-Jun-20 09:01N 46°21' W 124°53'4 8.7
2018-Jun-20 08:30N 46°16' W 124°52'4 8.9
2018-Jun-20 08:00N 46°12' W 124°50'5 9.1
2018-Jun-20 07:30N 46°08' W 124°49'5 8.9
2018-Jun-20 06:59N 46°03' W 124°50'13 8.8
2018-Jun-20 05:29N 45°50' W 124°50'4 8.6
2018-Jun-20 05:00N 45°46' W 124°50'4 8.6
2018-Jun-20 04:30N 45°41' W 124°50'4 8.5
2018-Jun-20 04:00N 45°37' W 124°51'6 8.5
2018-Jun-20 03:19N 45°31' W 124°51'3 8.4
2018-Jun-20 02:56N 45°28' W 124°51'4 8.3
2018-Jun-20 02:29N 45°24' W 124°51'4 8.3
2018-Jun-20 01:59N 45°20' W 124°51'4 8.1
2018-Jun-20 01:30N 45°16' W 124°51'4 8.0
2018-Jun-20 01:00N 45°12' W 124°51'4 7.8
2018-Jun-20 00:26N 45°08' W 124°51'4 8.0
2018-Jun-19 23:57N 45°04' W 124°50'4 8.3
2018-Jun-19 23:30N 45°00' W 124°50'4 8.2
2018-Jun-19 22:59N 44°56' W 124°49'50 8.7
2018-Jun-19 17:14N 44°06' W 124°47'345 7.8
2018-Jun-17 20:49N 38°26' W 123°27'2 6.7
2018-Jun-17 20:29N 38°24' W 123°26'3 6.6
2018-Jun-17 20:00N 38°21' W 123°23'3 6.5
2018-Jun-17 19:29N 38°19' W 123°21'3 6.5
2018-Jun-17 19:00N 38°16' W 123°19'3 6.7
2018-Jun-17 18:29N 38°13' W 123°17'4 7.4
2018-Jun-17 18:00N 38°10' W 123°14'5 7.5
2018-Jun-17 17:24N 38°06' W 123°11'4 7.6
2018-Jun-17 16:56N 38°03' W 123°09'5 8.5
2018-Jun-17 16:21N 37°59' W 123°06'3 8.4
2018-Jun-17 15:59N 37°57' W 123°02'4 8.2
2018-Jun-17 15:29N 37°56' W 122°58'23 8.1
2018-Jun-17 12:42N 37°49' W 122°30'2 9.9
2018-Jun-17 12:28N 37°50' W 122°28'2 0.1
2018-Jun-16 23:26N 37°52' W 122°29'0 0.0
2018-Jun-16 22:50N 37°52' W 122°29'0 0.0
2018-Jun-16 22:20N 37°52' W 122°29'0 0.0
2018-Jun-16 21:56N 37°52' W 122°29'0 0.0
2018-Jun-16 21:20N 37°52' W 122°29'0 0.0
2018-Jun-16 20:50N 37°52' W 122°29'0 0.0
2018-Jun-16 20:20N 37°52' W 122°29'0 0.0
2018-Jun-16 19:56N 37°52' W 122°29'0 0.0
2018-Jun-16 19:26N 37°52' W 122°29'0 0.0
2018-Jun-16 18:56N 37°52' W 122°29'0 0.0
2018-Jun-16 18:26N 37°52' W 122°29'0 0.0
2018-Jun-16 17:56N 37°52' W 122°29'0 0.0
2018-Jun-16 17:26N 37°52' W 122°29'0 0.0
2018-Jun-16 16:50N 37°52' W 122°29'0 0.0
2018-Jun-16 16:26N 37°52' W 122°29'0 0.0
2018-Jun-16 15:56N 37°52' W 122°29'0 0.0
2018-Jun-16 15:26N 37°52' W 122°29'0 0.0
2018-Jun-16 14:50N 37°52' W 122°29'0 0.0
2018-Jun-16 14:26N 37°52' W 122°29'0 0.0
2018-Jun-16 13:56N 37°52' W 122°29'0 0.0
2018-Jun-16 13:26N 37°52' W 122°29'0 0.0
2018-Jun-16 12:56N 37°52' W 122°29'0 0.0
2018-Jun-16 12:26N 37°52' W 122°29'0 0.0
2018-Jun-16 11:56N 37°52' W 122°29'0 0.0
2018-Jun-16 11:26N 37°52' W 122°29'0 0.0
2018-Jun-16 10:50N 37°52' W 122°29'0 0.0
2018-Jun-16 10:26N 37°52' W 122°29'0 0.0
2018-Jun-16 09:44N 37°52' W 122°29'0 0.0
2018-Jun-16 09:20N 37°52' W 122°29'0 0.0
2018-Jun-16 08:56N 37°52' W 122°29'0 0.0
2018-Jun-16 08:20N 37°52' W 122°29'0 0.0
2018-Jun-16 07:56N 37°52' W 122°29'0 0.0
2018-Jun-16 07:26N 37°52' W 122°29'0 0.0
2018-Jun-16 06:56N 37°52' W 122°29'0 0.0
2018-Jun-16 06:26N 37°52' W 122°29'0 0.0
2018-Jun-16 05:56N 37°52' W 122°29'0 0.0
2018-Jun-16 05:20N 37°52' W 122°29'0 0.0
2018-Jun-16 04:56N 37°52' W 122°29'0 0.0
2018-Jun-16 04:26N 37°52' W 122°29'0 0.0
2018-Jun-16 03:56N 37°52' W 122°29'0 0.0
2018-Jun-16 03:14N 37°52' W 122°29'0 0.0
2018-Jun-16 02:56N 37°52' W 122°29'0 0.0
2018-Jun-16 02:30N 37°52' W 122°29'1 1.7
2018-Jun-16 01:59N 37°51' W 122°28'4 7.4
2018-Jun-16 01:29N 37°48' W 122°26'0 0.0
2018-Jun-16 00:59N 37°48' W 122°26'0 0.0
2018-Jun-16 00:29N 37°48' W 122°26'1 1.0
2018-Jun-16 00:00N 37°49' W 122°26'17 6.8
2018-Jun-15 21:32N 37°34' W 122°36'1 8.1
2018-Jun-15 21:23N 37°33' W 122°36'3 8.2
2018-Jun-15 21:00N 37°30' W 122°34'5 8.9
2018-Jun-15 20:28N 37°25' W 122°32'170 7.6
2018-Jun-14 22:00N 34°58' W 120°47'4 7.4
2018-Jun-14 21:28N 34°54' W 120°45'4 7.5
2018-Jun-14 21:00N 34°51' W 120°44'4 7.3
2018-Jun-14 20:30N 34°47' W 120°43'4 7.3
2018-Jun-14 20:00N 34°44' W 120°43'4 7.5
2018-Jun-14 19:30N 34°40' W 120°42'6 7.6
2018-Jun-14 18:41N 34°34' W 120°40'2 7.3
2018-Jun-14 18:27N 34°32' W 120°39'3 7.2
2018-Jun-14 18:00N 34°30' W 120°36'4 7.3
2018-Jun-14 17:30N 34°28' W 120°33'4 7.4
2018-Jun-14 17:00N 34°26' W 120°29'4 8.1
2018-Jun-14 16:30N 34°23' W 120°25'4 8.3
2018-Jun-14 16:00N 34°21' W 120°21'4 8.4
2018-Jun-14 15:29N 34°19' W 120°16'4 8.3
2018-Jun-14 15:00N 34°19' W 120°12'4 8.3
2018-Jun-14 14:30N 34°18' W 120°07'5 7.9
2018-Jun-14 13:51N 34°16' W 120°01'3 7.5
2018-Jun-14 13:30N 34°16' W 119°58'5 7.4
2018-Jun-14 12:53N 34°14' W 119°53'3 7.0
2018-Jun-14 12:30N 34°13' W 119°50'5 7.7
2018-Jun-14 11:55N 34°12' W 119°45'4 7.9
2018-Jun-14 11:29N 34°11' W 119°40'4 7.9
2018-Jun-14 10:58N 34°09' W 119°36'4 7.9
2018-Jun-14 10:29N 34°07' W 119°32'4 8.0
2018-Jun-14 10:00N 34°05' W 119°28'4 7.3
2018-Jun-14 09:30N 34°03' W 119°24'64 8.0
2018-Jun-14 01:33N 33°28' W 118°20'41 7.7
2018-Jun-13 20:15N 33°01' W 117°44'2 7.8
2018-Jun-13 20:00N 32°59' W 117°42'6 8.1
2018-Jun-13 19:13N 32°55' W 117°37'2 8.1
2018-Jun-13 19:00N 32°53' W 117°36'4 8.0
2018-Jun-13 18:30N 32°50' W 117°33'  
Track history (hours):
 
Tides and Currents Weather Stations Pressure Air Temp Water Temp Dewpoint Dewpoint Depression Visibility Wind Speed Wind Dir Waves Ship Positions

Safari

Owner: Kauai Safari, LLC, Encinitas, CA. More information available from US FCC via Universal Licensing System and Coast Guard Vessel Documentation Center.

Last reported at 2018-Jun-20 12:11 UTC. Time now 2018-Jun-20 15:18 UTC.
Position N 46°48' W 124°52'.

Length 25 m.

Type: Pleasure craft. MMSI: 367691450.

Date/timePositionNaut miles runAvg speedWind from/ knotsBaromVisibWave heightAir tempDewpointWater temp
2018-Jun-20 12:11N 46°48' W 124°52'2 8.9
2018-Jun-20 11:59N 46°47' W 124°52'12 8.6
2018-Jun-20 10:33N 46°34' W 124°52'1 8.2
2018-Jun-20 10:28N 46°34' W 124°52'4 9.2
2018-Jun-20 10:00N 46°29' W 124°52'4 8.9
2018-Jun-20 09:31N 46°25' W 124°52'4 8.8
2018-Jun-20 09:01N 46°21' W 124°53'4 8.7
2018-Jun-20 08:30N 46°16' W 124°52'4 8.9
2018-Jun-20 08:00N 46°12' W 124°50'5 9.1
2018-Jun-20 07:30N 46°08' W 124°49'5 8.9
2018-Jun-20 06:59N 46°03' W 124°50'13 8.8
2018-Jun-20 05:29N 45°50' W 124°50'4 8.6
2018-Jun-20 05:00N 45°46' W 124°50'4 8.6
2018-Jun-20 04:30N 45°41' W 124°50'4 8.5
2018-Jun-20 04:00N 45°37' W 124°51'6 8.5
2018-Jun-20 03:19N 45°31' W 124°51'3 8.4
2018-Jun-20 02:56N 45°28' W 124°51'4 8.3
2018-Jun-20 02:29N 45°24' W 124°51'4 8.3
2018-Jun-20 01:59N 45°20' W 124°51'4 8.1
2018-Jun-20 01:30N 45°16' W 124°51'4 8.0
2018-Jun-20 01:00N 45°12' W 124°51'4 7.8
2018-Jun-20 00:26N 45°08' W 124°51'4 8.0
2018-Jun-19 23:57N 45°04' W 124°50'4 8.3
2018-Jun-19 23:30N 45°00' W 124°50'4 8.2
2018-Jun-19 22:59N 44°56' W 124°49'50 8.7
2018-Jun-19 17:14N 44°06' W 124°47'345 7.8
2018-Jun-17 20:49N 38°26' W 123°27'2 6.7
2018-Jun-17 20:29N 38°24' W 123°26'3 6.6
2018-Jun-17 20:00N 38°21' W 123°23'3 6.5
2018-Jun-17 19:29N 38°19' W 123°21'3 6.5
2018-Jun-17 19:00N 38°16' W 123°19'3 6.7
2018-Jun-17 18:29N 38°13' W 123°17'4 7.4
2018-Jun-17 18:00N 38°10' W 123°14'5 7.5
2018-Jun-17 17:24N 38°06' W 123°11'4 7.6
2018-Jun-17 16:56N 38°03' W 123°09'5 8.5
2018-Jun-17 16:21N 37°59' W 123°06'3 8.4
2018-Jun-17 15:59N 37°57' W 123°02'4 8.2
2018-Jun-17 15:29N 37°56' W 122°58'23 8.1
2018-Jun-17 12:42N 37°49' W 122°30'2 9.9
2018-Jun-17 12:28N 37°50' W 122°28'2 0.1
2018-Jun-16 23:26N 37°52' W 122°29'0 0.0
2018-Jun-16 22:50N 37°52' W 122°29'0 0.0
2018-Jun-16 22:20N 37°52' W 122°29'0 0.0
2018-Jun-16 21:56N 37°52' W 122°29'0 0.0
2018-Jun-16 21:20N 37°52' W 122°29'0 0.0
2018-Jun-16 20:50N 37°52' W 122°29'0 0.0
2018-Jun-16 20:20N 37°52' W 122°29'0 0.0
2018-Jun-16 19:56N 37°52' W 122°29'0 0.0
2018-Jun-16 19:26N 37°52' W 122°29'0 0.0
2018-Jun-16 18:56N 37°52' W 122°29'0 0.0
2018-Jun-16 18:26N 37°52' W 122°29'0 0.0
2018-Jun-16 17:56N 37°52' W 122°29'0 0.0
2018-Jun-16 17:26N 37°52' W 122°29'0 0.0
2018-Jun-16 16:50N 37°52' W 122°29'0 0.0
2018-Jun-16 16:26N 37°52' W 122°29'0 0.0
2018-Jun-16 15:56N 37°52' W 122°29'0 0.0
2018-Jun-16 15:26N 37°52' W 122°29'0 0.0
2018-Jun-16 14:50N 37°52' W 122°29'0 0.0
2018-Jun-16 14:26N 37°52' W 122°29'0 0.0
2018-Jun-16 13:56N 37°52' W 122°29'0 0.0
2018-Jun-16 13:26N 37°52' W 122°29'0 0.0
2018-Jun-16 12:56N 37°52' W 122°29'0 0.0
2018-Jun-16 12:26N 37°52' W 122°29'0 0.0
2018-Jun-16 11:56N 37°52' W 122°29'0 0.0
2018-Jun-16 11:26N 37°52' W 122°29'0 0.0
2018-Jun-16 10:50N 37°52' W 122°29'0 0.0
2018-Jun-16 10:26N 37°52' W 122°29'0 0.0
2018-Jun-16 09:44N 37°52' W 122°29'0 0.0
2018-Jun-16 09:20N 37°52' W 122°29'0 0.0
2018-Jun-16 08:56N 37°52' W 122°29'0 0.0
2018-Jun-16 08:20N 37°52' W 122°29'0 0.0
2018-Jun-16 07:56N 37°52' W 122°29'0 0.0
2018-Jun-16 07:26N 37°52' W 122°29'0 0.0
2018-Jun-16 06:56N 37°52' W 122°29'0 0.0
2018-Jun-16 06:26N 37°52' W 122°29'0 0.0
2018-Jun-16 05:56N 37°52' W 122°29'0 0.0
2018-Jun-16 05:20N 37°52' W 122°29'0 0.0
2018-Jun-16 04:56N 37°52' W 122°29'0 0.0
2018-Jun-16 04:26N 37°52' W 122°29'0 0.0
2018-Jun-16 03:56N 37°52' W 122°29'0 0.0
2018-Jun-16 03:14N 37°52' W 122°29'0 0.0
2018-Jun-16 02:56N 37°52' W 122°29'0 0.0
2018-Jun-16 02:30N 37°52' W 122°29'1 1.7
2018-Jun-16 01:59N 37°51' W 122°28'4 7.4
2018-Jun-16 01:29N 37°48' W 122°26'0 0.0
2018-Jun-16 00:59N 37°48' W 122°26'0 0.0
2018-Jun-16 00:29N 37°48' W 122°26'1 1.0
2018-Jun-16 00:00N 37°49' W 122°26'17 6.8
2018-Jun-15 21:32N 37°34' W 122°36'1 8.1
2018-Jun-15 21:23N 37°33' W 122°36'3 8.2
2018-Jun-15 21:00N 37°30' W 122°34'5 8.9
2018-Jun-15 20:28N 37°25' W 122°32'170 7.6
2018-Jun-14 22:00N 34°58' W 120°47'4 7.4
2018-Jun-14 21:28N 34°54' W 120°45'4 7.5
2018-Jun-14 21:00N 34°51' W 120°44'4 7.3
2018-Jun-14 20:30N 34°47' W 120°43'4 7.3
2018-Jun-14 20:00N 34°44' W 120°43'4 7.5
2018-Jun-14 19:30N 34°40' W 120°42'6 7.6
2018-Jun-14 18:41N 34°34' W 120°40'2 7.3
2018-Jun-14 18:27N 34°32' W 120°39'3 7.2
2018-Jun-14 18:00N 34°30' W 120°36'4 7.3
2018-Jun-14 17:30N 34°28' W 120°33'4 7.4
2018-Jun-14 17:00N 34°26' W 120°29'4 8.1
2018-Jun-14 16:30N 34°23' W 120°25'4 8.3
2018-Jun-14 16:00N 34°21' W 120°21'4 8.4
2018-Jun-14 15:29N 34°19' W 120°16'4 8.3
2018-Jun-14 15:00N 34°19' W 120°12'4 8.3
2018-Jun-14 14:30N 34°18' W 120°07'5 7.9
2018-Jun-14 13:51N 34°16' W 120°01'3 7.5
2018-Jun-14 13:30N 34°16' W 119°58'5 7.4
2018-Jun-14 12:53N 34°14' W 119°53'3 7.0
2018-Jun-14 12:30N 34°13' W 119°50'5 7.7
2018-Jun-14 11:55N 34°12' W 119°45'4 7.9
2018-Jun-14 11:29N 34°11' W 119°40'4 7.9
2018-Jun-14 10:58N 34°09' W 119°36'4 7.9
2018-Jun-14 10:29N 34°07' W 119°32'4 8.0
2018-Jun-14 10:00N 34°05' W 119°28'4 7.3
2018-Jun-14 09:30N 34°03' W 119°24'64 8.0
2018-Jun-14 01:33N 33°28' W 118°20'41 7.7
2018-Jun-13 20:15N 33°01' W 117°44'2 7.8
2018-Jun-13 20:00N 32°59' W 117°42'6 8.1
2018-Jun-13 19:13N 32°55' W 117°37'2 8.1
2018-Jun-13 19:00N 32°53' W 117°36'4 8.0
2018-Jun-13 18:30N 32°50' W 117°33'  

Dump ship's entire track history